Okeanos Explorer — WTDH — position and weather

sailwx.info

Track history (hours):
 
Tides and Currents Weather Stations Pressure Air Temp Water Temp Dewpoint Dewpoint Depression Visibility Wind Speed Wind Dir Waves Ship Positions

Oceanographic research ship Okeanos Explorer (USA)

Ship's website: http://oceanexplorer.noaa.gov/okeanos/

Last reported at 2017-Sep-22 13:00 UTC. Time now 2017-Sep-22 13:42 UTC.
Position N 27°36' W 161°24'.

Length 69 m; draft 5 m.

Type: Other ship. MMSI: 369888000.

Wind from 090 at 18 knots

Barometer 1018.2 mb
Water temperature 27.2 ° C

Date/timePositionNaut miles runAvg speedWind from/ knotsBaromVisibWave heightAir tempDewpointWater temp
2017-Sep-22 13:00N 27°36' W 161°24'6 6.0 090 / 181018.2 27.2
2017-Sep-22 12:00N 27°42' W 161°24'6 6.0 090 / 161017.0 5.4 26.922.027.2
2017-Sep-22 11:00N 27°48' W 161°24'1313.1 070 / 191019.1 27.2
2017-Sep-22 10:00N 28°00' W 161°30'6 6.0 080 / 181019.5 27.3
2017-Sep-22 09:00N 28°06' W 161°30'1313.1 070 / 191019.9 5.4 26.823.627.5
2017-Sep-22 08:00N 28°18' W 161°36'8 8.0 070 / 181020.1 27.3
2017-Sep-22 07:00N 28°24' W 161°42'1212.0 070 / 191020.0 27.2
2017-Sep-22 06:00N 28°36' W 161°42'8 8.0 080 / 161020.0 27.2
2017-Sep-22 05:00N 28°42' W 161°36'5 5.3 090 / 131019.8 27.2
2017-Sep-22 04:00N 28°42' W 161°42'0 0.0 090 / 111019.7 27.2
2017-Sep-22 03:00N 28°42' W 161°42'0 0.0 060 / 121019.7 27.0
2017-Sep-22 02:00N 28°42' W 161°42'0 0.0 070 / 101019.8 27.2
2017-Sep-22 01:00N 28°42' W 161°42'0 0.0 060 / 81019.9 27.3
2017-Sep-22 00:00N 28°42' W 161°42'0 0.0 060 / 101020.1 27.2
2017-Sep-21 23:00N 28°42' W 161°42'0 0.0 080 / 111020.6 27.1
2017-Sep-21 22:00N 28°42' W 161°42'0 0.0 080 / 111020.9 27.1
2017-Sep-21 21:00N 28°42' W 161°42'0 0.0 100 / 111021.0 5.4 27.123.327.0
2017-Sep-21 20:00N 28°42' W 161°42'0 0.0 100 / 111021.0 27.0
2017-Sep-21 19:00N 28°42' W 161°42'0 0.0 100 / 91020.8 27.0
2017-Sep-21 18:00N 28°42' W 161°42'0 0.0 090 / 111020.6 27.0
2017-Sep-21 17:00N 28°42' W 161°42'0 0.0 100 / 121020.1 27.0
2017-Sep-21 16:00N 28°42' W 161°42'8 8.0 090 / 121020.0 27.0
2017-Sep-21 15:00N 28°48' W 161°36'6 6.0 090 / 131019.7 26.6
2017-Sep-21 14:00N 28°54' W 161°36'1313.1 090 / 151019.6 26.6
2017-Sep-21 13:00N 29°06' W 161°42'6 6.0 090 / 141019.9 26.5
2017-Sep-21 12:00N 29°12' W 161°42'8 8.0 100 / 141018.6 5.4 26.422.126.5
2017-Sep-21 11:00N 29°06' W 161°48'8 8.0 110 / 151020.7 26.6
2017-Sep-21 10:00N 29°00' W 161°42'6 6.0 120 / 151020.9 26.6
2017-Sep-21 09:00N 28°54' W 161°42'1313.1 090 / 171020.6 26.6
2017-Sep-21 08:00N 29°06' W 161°48'8 8.0 090 / 151020.9 26.6
2017-Sep-21 07:00N 29°12' W 161°54'8 8.0 120 / 151020.8 26.5
2017-Sep-21 06:00N 29°06' W 161°48'8 8.0 110 / 141020.6 5.4 26.523.626.7
2017-Sep-21 05:00N 29°00' W 161°54'5 5.2 120 / 131019.9 26.8
2017-Sep-21 04:00N 29°00' W 162°00'5 5.2 110 / 111019.7 26.9
2017-Sep-21 03:00N 29°00' W 162°06'0 0.0 110 / 111019.2 26.9
2017-Sep-21 02:00N 29°00' W 162°06'0 0.0
2017-Sep-21 01:00N 29°00' W 162°06'0 0.0
2017-Sep-21 00:00N 29°00' W 162°06'0 0.0 120 / 101019.2 5.4 27.422.426.8
2017-Sep-20 23:00N 29°00' W 162°06'0 0.0 120 / 121019.4 26.8
2017-Sep-20 22:00N 29°00' W 162°06'0 0.0 120 / 141019.3 26.7
2017-Sep-20 21:00N 29°00' W 162°06'0 0.0 110 / 121019.5 5.4 27.022.626.6
2017-Sep-20 20:00N 29°00' W 162°06'0 0.0 120 / 121019.6 26.6
2017-Sep-20 19:00N 29°00' W 162°06'0 0.0 120 / 121019.2 26.6
2017-Sep-20 18:00N 29°00' W 162°06'0 0.0 130 / 121018.9 26.6
2017-Sep-20 17:00N 29°00' W 162°06'0 0.0 130 / 131018.6 26.6
2017-Sep-20 16:00N 29°00' W 162°06'1212.1 130 / 111018.3 26.6
2017-Sep-20 15:00N 28°54' W 161°54'5 5.3 120 / 131018.2 26.6
2017-Sep-20 14:00N 28°54' W 161°48'8 8.0 150 / 191017.6 26.6
2017-Sep-20 13:00N 29°00' W 161°54'6 6.0 120 / 171017.5 26.6
2017-Sep-20 12:00N 29°06' W 161°54'5 5.2 120 / 191017.7 5.4 26.322.526.5
2017-Sep-20 11:00N 29°06' W 162°00'8 8.0 120 / 151017.9 26.5
2017-Sep-20 10:00N 29°00' W 161°54'6 6.0 120 / 171018.3 26.6
2017-Sep-20 09:00N 28°54' W 161°54'8 8.0 120 / 171018.7 5.4 26.523.626.7
2017-Sep-20 08:00N 28°48' W 162°00'1110.5 130 / 161018.5 26.8
2017-Sep-20 07:00N 28°48' W 162°12'1212.1 130 / 181018.4 27.0
2017-Sep-20 06:00N 28°42' W 162°24'1110.5 130 / 191017.7 27.1
2017-Sep-20 05:00N 28°42' W 162°36'0 0.0 100 / 141017.7 27.0
2017-Sep-20 04:00N 28°42' W 162°36'0 0.0 120 / 141017.4 27.1
2017-Sep-20 03:00N 28°42' W 162°36'0 0.0 090 / 131016.9 27.1
2017-Sep-20 02:00N 28°42' W 162°36'0 0.0 090 / 131016.7 27.1
2017-Sep-20 01:00N 28°42' W 162°36'0 0.0 120 / 121016.8 27.1
2017-Sep-20 00:00N 28°42' W 162°36'0 0.0 130 / 141017.1 27.1
2017-Sep-19 23:00N 28°42' W 162°36'0 0.0 130 / 141017.4 27.1
2017-Sep-19 22:00N 28°42' W 162°36'0 0.0 120 / 161017.8 27.0
2017-Sep-19 21:00N 28°42' W 162°36'0 0.0 130 / 151017.9 27.0
2017-Sep-19 20:00N 28°42' W 162°36'0 0.0 130 / 161017.8 26.9
2017-Sep-19 19:00N 28°42' W 162°36'0 0.0 130 / 161017.7 26.9
2017-Sep-19 18:00N 28°42' W 162°36'0 0.0 130 / 181017.4 26.9
2017-Sep-19 17:00N 28°42' W 162°36'8 8.0 130 / 171016.9 26.9
2017-Sep-19 16:00N 28°48' W 162°42'8 8.0 120 / 171016.8 26.8
2017-Sep-19 15:00N 28°54' W 162°48'1313.1 120 / 171016.5 26.7
2017-Sep-19 14:00N 29°06' W 162°54'8 8.0 090 / 181016.8 26.5
2017-Sep-19 13:00N 29°12' W 163°00'8 8.0 120 / 141017.4 26.4
2017-Sep-19 12:00N 29°18' W 163°06'8 8.0 120 / 181015.2 5.4 26.024.026.4
2017-Sep-19 11:00N 29°24' W 163°12'8 8.0 100 / 191018.2 26.3
2017-Sep-19 10:00N 29°30' W 163°18'1313.1 100 / 181018.4 26.4
2017-Sep-19 09:00N 29°42' W 163°24'8 7.9 100 / 171018.8 5.4 26.523.226.2
2017-Sep-19 08:00N 29°48' W 163°30'8 7.9 110 / 181018.9 26.0
2017-Sep-19 07:00N 29°54' W 163°36'1313.1 110 / 171018.9 26.0
2017-Sep-19 06:00N 30°06' W 163°42'8 7.9 100 / 161018.6 25.9
2017-Sep-19 05:00N 30°12' W 163°48'8 7.9 110 / 171018.3 25.8
2017-Sep-19 04:00N 30°18' W 163°54'8 7.9 110 / 171018.1 25.7
2017-Sep-19 03:00N 30°24' W 164°00'0 0.0 130 / 141018.3 25.5
2017-Sep-19 02:00N 30°24' W 164°00'0 0.0 120 / 161018.3 25.5
2017-Sep-19 01:00N 30°24' W 164°00'0 0.0 140 / 141018.7 25.5
2017-Sep-19 00:00N 30°24' W 164°00'0 0.0 140 / 171018.9 5.4 26.523.225.4
2017-Sep-18 23:00N 30°24' W 164°00'0 0.0 130 / 161019.3 25.4
2017-Sep-18 22:00N 30°24' W 164°00'0 0.0 130 / 171019.8 25.4
2017-Sep-18 21:00N 30°24' W 164°00'0 0.0 120 / 171020.3 25.3
2017-Sep-18 20:00N 30°24' W 164°00'0 0.0 120 / 171020.5 25.3
2017-Sep-18 19:00N 30°24' W 164°00'0 0.0 120 / 151020.2 25.3
2017-Sep-18 18:00N 30°24' W 164°00'0 0.0 120 / 171019.8 25.3
2017-Sep-18 17:00N 30°24' W 164°00'0 0.0 110 / 171019.6 25.3
2017-Sep-18 16:00N 30°24' W 164°00'5 5.2 130 / 151019.6 25.3
2017-Sep-18 15:00N 30°24' W 164°06'1313.1 110 / 171019.2 25.3
2017-Sep-18 14:00N 30°36' W 164°00'8 7.9 120 / 151019.3 25.4
2017-Sep-18 13:00N 30°42' W 164°06'1313.1 110 / 161019.6 25.6
2017-Sep-18 12:00N 30°54' W 164°12'8 7.9 100 / 171020.0 25.6
2017-Sep-18 11:00N 31°00' W 164°18'1313.1 100 / 161020.4 25.6
2017-Sep-18 10:00N 31°12' W 164°24'6 6.0 100 / 181020.6 25.6
2017-Sep-18 09:00N 31°18' W 164°24'1313.0 100 / 171021.0 5.4 25.524.125.7
2017-Sep-18 08:00N 31°30' W 164°30'1211.9 100 / 141021.3 25.5
2017-Sep-18 07:00N 31°24' W 164°42'1211.9 140 / 141021.0 25.3
2017-Sep-18 06:00N 31°30' W 164°54'1010.2 120 / 111020.6 25.3
2017-Sep-18 05:00N 31°30' W 165°06'6 6.0 120 / 111020.1 25.4
2017-Sep-18 04:00N 31°36' W 165°06'8 7.9 120 / 131020.4 25.0
2017-Sep-18 03:00N 31°42' W 165°00'0 0.0 140 / 111020.2 25.2
2017-Sep-18 02:00N 31°42' W 165°00'0 0.0 130 / 121020.0 25.2
2017-Sep-18 01:00N 31°42' W 165°00'0 0.0 140 / 111020.2 25.2
2017-Sep-18 00:00N 31°42' W 165°00'0 0.0 140 / 121018.5 5.4 26.424.125.1
2017-Sep-17 23:00N 31°42' W 165°00'0 0.0 140 / 141021.0 25.1
2017-Sep-17 22:00N 31°42' W 165°00'0 0.0 130 / 131021.3 24.9
2017-Sep-17 21:00N 31°42' W 165°00'0 0.0 130 / 121021.5 24.9
2017-Sep-17 20:00N 31°42' W 165°00'0 0.0 120 / 121021.5 24.8
2017-Sep-17 19:00N 31°42' W 165°00'0 0.0 120 / 141021.4 24.8
2017-Sep-17 18:00N 31°42' W 165°00'0 0.0 130 / 141021.3 24.8
2017-Sep-17 17:00N 31°42' W 165°00'0 0.0 120 / 151021.0 24.8
2017-Sep-17 16:00N 31°42' W 165°00'8 7.9 100 / 151020.7 24.8
2017-Sep-17 15:00N 31°48' W 164°54'8 7.9 100 / 161020.8 24.4
2017-Sep-17 14:00N 31°54' W 165°00'1211.8 100 / 161020.5 24.5
2017-Sep-17 13:00N 32°00' W 165°12'8 7.9 100 / 191020.5 24.6
2017-Sep-17 12:00N 32°06' W 165°06'1212.0 090 / 181021.2 5.4 24.523.024.6
2017-Sep-17 11:00N 32°18' W 165°06'1212.0 080 / 191021.6 24.4
2017-Sep-17 10:00N 32°30' W 165°06'8 7.8 080 / 171022.3 23.9
2017-Sep-17 09:00N 32°36' W 165°00'1212.0 080 / 181022.8 23.9
2017-Sep-17 08:00N 32°48' W 165°00'1212.0 080 / 171023.0 23.8
2017-Sep-17 07:00N 33°00' W 165°00'8 7.8 080 / 161023.3 23.8
2017-Sep-17 06:00N 33°06' W 164°54'8 7.8 080 / 161022.5 23.7
2017-Sep-17 05:00N 33°12' W 164°48'6 6.0 100 / 161022.0 23.6
2017-Sep-17 04:00N 33°18' W 164°48'0 0.0 090 / 181021.6 23.6
2017-Sep-17 03:00N 33°18' W 164°48'0 0.0 070 / 191021.3 23.6
2017-Sep-17 02:00N 33°18' W 164°48'0 0.0 090 / 171021.4 23.6
2017-Sep-17 01:00N 33°18' W 164°48'0 0.0 090 / 181021.5 23.6
2017-Sep-17 00:00N 33°18' W 164°48'0 0.0 100 / 211021.6 23.6
2017-Sep-16 23:00N 33°18' W 164°48'6 6.0 090 / 171022.2 23.6
2017-Sep-16 22:00N 33°12' W 164°48'0 0.0 090 / 191022.4 23.5
2017-Sep-16 21:00N 33°12' W 164°48'0 0.0 090 / 191022.5 23.5
2017-Sep-16 20:00N 33°12' W 164°48'0 0.0 080 / 211022.6 23.5
2017-Sep-16 19:00N 33°12' W 164°48'10 1.3 080 / 181022.4 23.5
2017-Sep-16 11:00N 33°12' W 164°36'1313.0 070 / 221021.9 23.8
2017-Sep-16 10:00N 33°00' W 164°30'1211.7 070 / 211021.8 23.8
2017-Sep-16 09:00N 32°54' W 164°18'8 7.8 060 / 221021.7 23.7
2017-Sep-16 08:00N 32°48' W 164°12'8 7.8 070 / 211021.5 23.8
2017-Sep-16 07:00N 32°42' W 164°06'1615.7 080 / 221021.0 23.8
2017-Sep-16 06:00N 32°30' W 163°54'8 7.9 060 / 201018.0 5.4 23.021.523.9
2017-Sep-16 05:00N 32°24' W 163°48'8 7.9 070 / 221019.5 24.0
2017-Sep-16 04:00N 32°18' W 163°42'8 7.9 070 / 231019.2 24.2
2017-Sep-16 03:00N 32°12' W 163°36'0 0.0 050 / 201019.0 24.4
2017-Sep-16 02:00N 32°12' W 163°36'0 0.0 060 / 201018.8 24.4
2017-Sep-16 01:00N 32°12' W 163°36'0 0.0 050 / 231018.8 24.4
2017-Sep-16 00:00N 32°12' W 163°36'0 0.0 040 / 201019.3 24.4
2017-Sep-15 23:00N 32°12' W 163°36'0 0.0 040 / 201019.7 24.4
2017-Sep-15 22:00N 32°12' W 163°36'0 0.0 050 / 191019.9 24.4
2017-Sep-15 21:00N 32°12' W 163°36'0 0.0 050 / 211020.1 24.4
2017-Sep-15 20:00N 32°12' W 163°36'0 0.0 040 / 201020.0 24.3
2017-Sep-15 19:00N 32°12' W 163°36'0 0.0 050 / 201019.7 24.4
2017-Sep-15 18:00N 32°12' W 163°36'0 0.0 040 / 201017.0 5.4 22.019.724.4
2017-Sep-15 17:00N 32°12' W 163°36'0 0.0 040 / 181018.8 24.4
2017-Sep-15 16:00N 32°12' W 163°36'8 7.9 050 / 171018.6 24.4
2017-Sep-15 15:00N 32°18' W 163°30'6 6.0 040 / 161018.2 24.1
2017-Sep-15 14:00N 32°24' W 163°30'1313.0 050 / 151018.3 23.9
2017-Sep-15 13:00N 32°36' W 163°36'6 6.0 040 / 171018.3 24.0
2017-Sep-15 12:00N 32°42' W 163°36'0 0.0 010 / 101016.4 5.4 22.217.924.0
2017-Sep-15 11:00N 32°42' W 163°36'8 7.8 060 / 191018.7 24.0
2017-Sep-15 10:00N 32°36' W 163°30'1918.7 060 / 211018.8 23.9
2017-Sep-15 09:00N 32°18' W 163°24'0 0.0 060 / 171016.5 5.4 22.517.723.9
2017-Sep-15 08:00N 32°18' W 163°24'8 7.9 060 / 231018.6 24.0
2017-Sep-15 07:00N 32°12' W 163°18'8 7.9 050 / 201018.4 24.4
2017-Sep-15 06:00N 32°06' W 163°12'8 7.9 050 / 221017.6 24.5
2017-Sep-15 05:00N 32°00' W 163°06'1211.8 050 / 191016.9 24.6
2017-Sep-15 04:00N 31°54' W 162°54'0 0.0 040 / 201016.6 24.4
2017-Sep-15 03:00N 31°54' W 162°54'0 0.0 030 / 181016.4 24.5
2017-Sep-15 02:00N 31°54' W 162°54'0 0.0 010 / 191016.4 24.5
2017-Sep-15 01:00N 31°54' W 162°54'0 0.0 030 / 171016.5 24.5
2017-Sep-15 00:00N 31°54' W 162°54'0 0.0 030 / 171016.9 24.4
2017-Sep-14 23:00N 31°54' W 162°54'0 0.0 020 / 171017.1 24.4
2017-Sep-14 22:00N 31°54' W 162°54'0 0.0 020 / 181017.3 24.4
2017-Sep-14 21:00N 31°54' W 162°54'0 0.0 020 / 201017.4 5.4 22.918.324.4
2017-Sep-14 20:00N 31°54' W 162°54'0 0.0 030 / 191017.4 24.4
2017-Sep-14 19:00N 31°54' W 162°54'6 6.0 030 / 181017.1 24.4
2017-Sep-14 18:00N 31°48' W 162°54'0 0.0 030 / 171016.8 24.4
2017-Sep-14 17:00N 31°48' W 162°54'0 0.0 040 / 141016.3 24.4
2017-Sep-14 16:00N 31°48' W 162°54'8 7.9 040 / 181015.6 24.5
2017-Sep-14 15:00N 31°42' W 162°48'8 7.9 030 / 191015.3 24.6
2017-Sep-14 14:00N 31°36' W 162°42'8 7.9 020 / 181015.1 24.7
2017-Sep-14 13:00N 31°30' W 162°36'1313.0 030 / 181015.0 24.8
2017-Sep-14 12:00N 31°18' W 162°30'8 7.9 030 / 211014.9 24.9
2017-Sep-14 11:00N 31°12' W 162°24'1212.0 030 / 171015.3 25.0
2017-Sep-14 10:00N 31°00' W 162°24'8 7.9 030 / 241015.4 25.0
2017-Sep-14 09:00N 30°54' W 162°18'8 7.9 030 / 181015.3 5.4 22.519.425.3
2017-Sep-14 08:00N 30°48' W 162°12'1313.1 020 / 191015.4 25.4
2017-Sep-14 07:00N 30°36' W 162°06'6 6.0 030 / 191015.0 25.7
2017-Sep-14 06:00N 30°30' W 162°06'8 7.9 020 / 211014.4 25.7
2017-Sep-14 05:00N 30°24' W 162°00'8 7.9 020 / 171014.2 25.7
2017-Sep-14 04:00N 30°18' W 162°06'0 0.0 090 / 171014.2 25.8
2017-Sep-14 03:00N 30°18' W 162°06'0 0.0 020 / 151013.9 25.8
2017-Sep-14 02:00N 30°18' W 162°06'0 0.0 030 / 151013.7 25.8
2017-Sep-14 01:00N 30°18' W 162°06'0 0.0 060 / 161014.0 25.8
2017-Sep-14 00:00N 30°18' W 162°06'0 0.0 340 / 161014.6 25.7
2017-Sep-13 23:00N 30°18' W 162°06'0 0.0 140 / 151015.1 25.7
2017-Sep-13 22:00N 30°18' W 162°06'0 0.0 060 / 181015.4 25.7
2017-Sep-13 21:00N 30°18' W 162°06'0 0.0 040 / 111015.6 25.7
2017-Sep-13 20:00N 30°18' W 162°06'0 0.0 160 / 121016.0 25.7
2017-Sep-13 19:00N 30°18' W 162°06'0 0.0 060 / 141015.6 25.7
2017-Sep-13 18:00N 30°18' W 162°06'0 0.0 080 / 151015.2 25.7
2017-Sep-13 17:00N 30°18' W 162°06'0 0.0 020 / 151014.9 25.7
2017-Sep-13 16:00N 30°18' W 162°06'5 5.2 040 / 171014.3 25.8
2017-Sep-13 15:00N 30°18' W 162°12'6 6.0 030 / 151014.6 25.9
2017-Sep-13 14:00N 30°24' W 162°12'1212.0 010 / 111014.7 25.8
2017-Sep-13 13:00N 30°30' W 162°00'1010.3 040 / 131015.1 25.7
2017-Sep-13 12:00N 30°30' W 161°48'8 7.9 050 / 141012.7 5.4 23.414.925.6
2017-Sep-13 11:00N 30°24' W 161°54'8 7.9 030 / 211015.2 25.7
2017-Sep-13 10:00N 30°18' W 162°00'6 6.0 040 / 141015.7 25.7
2017-Sep-13 09:00N 30°12' W 162°00'6 6.0 020 / 171015.6 25.7
2017-Sep-13 08:00N 30°06' W 162°00'1212.0 050 / 141015.5 25.8
2017-Sep-13 07:00N 29°54' W 162°00'6 6.0 050 / 191015.1 25.9
2017-Sep-13 06:00N 29°48' W 162°00'6 6.0 040 / 171014.4 26.1
2017-Sep-13 05:00N 29°42' W 162°00'1212.0 050 / 181013.7 26.2
2017-Sep-13 04:00N 29°30' W 162°00'8 8.0 060 / 231013.2 26.3
2017-Sep-13 03:00N 29°24' W 162°06'6 6.0 050 / 211012.9 26.4
2017-Sep-13 02:00N 29°18' W 162°06'8 8.0 040 / 221012.9 26.6
2017-Sep-13 01:00N 29°12' W 162°00'1212.0 060 / 231012.9 26.7
2017-Sep-13 00:00N 29°00' W 162°00'6 6.0 050 / 17
2017-Sep-12 23:00N 28°54' W 162°00'5 5.3 050 / 231013.2 26.9
2017-Sep-12 22:00N 28°54' W 162°06'8 8.0 020 / 21
2017-Sep-12 21:00N 29°00' W 162°12'6 6.0 040 / 181014.2 26.6
2017-Sep-12 20:00N 29°06' W 162°12'8 8.0 050 / 251014.2 26.8
2017-Sep-12 19:00N 29°00' W 162°06'0 0.0 060 / 221013.9 26.8
2017-Sep-12 18:00N 29°00' W 162°06'0 0.0 050 / 251013.7 26.8
2017-Sep-12 17:00N 29°00' W 162°06'0 0.0 020 / 231013.3 26.8
2017-Sep-12 16:00N 29°00' W 162°06'   030 / 241013.2 26.8
Track history (hours):
 
Tides and Currents Weather Stations Pressure Air Temp Water Temp Dewpoint Dewpoint Depression Visibility Wind Speed Wind Dir Waves Ship Positions

Oceanographic research ship Okeanos Explorer (USA)

Ship's website: http://oceanexplorer.noaa.gov/okeanos/

Last reported at 2017-Sep-22 13:00 UTC. Time now 2017-Sep-22 13:42 UTC.
Position N 27°36' W 161°24'.

Length 69 m; draft 5 m.

Type: Other ship. MMSI: 369888000.

Wind from 090 at 18 knots

Barometer 1018.2 mb
Water temperature 27.2 ° C

Date/timePositionNaut miles runAvg speedWind from/ knotsBaromVisibWave heightAir tempDewpointWater temp
2017-Sep-22 13:00N 27°36' W 161°24'6 6.0 090 / 181018.2 27.2
2017-Sep-22 12:00N 27°42' W 161°24'6 6.0 090 / 161017.0 5.4 26.922.027.2
2017-Sep-22 11:00N 27°48' W 161°24'1313.1 070 / 191019.1 27.2
2017-Sep-22 10:00N 28°00' W 161°30'6 6.0 080 / 181019.5 27.3
2017-Sep-22 09:00N 28°06' W 161°30'1313.1 070 / 191019.9 5.4 26.823.627.5
2017-Sep-22 08:00N 28°18' W 161°36'8 8.0 070 / 181020.1 27.3
2017-Sep-22 07:00N 28°24' W 161°42'1212.0 070 / 191020.0 27.2
2017-Sep-22 06:00N 28°36' W 161°42'8 8.0 080 / 161020.0 27.2
2017-Sep-22 05:00N 28°42' W 161°36'5 5.3 090 / 131019.8 27.2
2017-Sep-22 04:00N 28°42' W 161°42'0 0.0 090 / 111019.7 27.2
2017-Sep-22 03:00N 28°42' W 161°42'0 0.0 060 / 121019.7 27.0
2017-Sep-22 02:00N 28°42' W 161°42'0 0.0 070 / 101019.8 27.2
2017-Sep-22 01:00N 28°42' W 161°42'0 0.0 060 / 81019.9 27.3
2017-Sep-22 00:00N 28°42' W 161°42'0 0.0 060 / 101020.1 27.2
2017-Sep-21 23:00N 28°42' W 161°42'0 0.0 080 / 111020.6 27.1
2017-Sep-21 22:00N 28°42' W 161°42'0 0.0 080 / 111020.9 27.1
2017-Sep-21 21:00N 28°42' W 161°42'0 0.0 100 / 111021.0 5.4 27.123.327.0
2017-Sep-21 20:00N 28°42' W 161°42'0 0.0 100 / 111021.0 27.0
2017-Sep-21 19:00N 28°42' W 161°42'0 0.0 100 / 91020.8 27.0
2017-Sep-21 18:00N 28°42' W 161°42'0 0.0 090 / 111020.6 27.0
2017-Sep-21 17:00N 28°42' W 161°42'0 0.0 100 / 121020.1 27.0
2017-Sep-21 16:00N 28°42' W 161°42'8 8.0 090 / 121020.0 27.0
2017-Sep-21 15:00N 28°48' W 161°36'6 6.0 090 / 131019.7 26.6
2017-Sep-21 14:00N 28°54' W 161°36'1313.1 090 / 151019.6 26.6
2017-Sep-21 13:00N 29°06' W 161°42'6 6.0 090 / 141019.9 26.5
2017-Sep-21 12:00N 29°12' W 161°42'8 8.0 100 / 141018.6 5.4 26.422.126.5
2017-Sep-21 11:00N 29°06' W 161°48'8 8.0 110 / 151020.7 26.6
2017-Sep-21 10:00N 29°00' W 161°42'6 6.0 120 / 151020.9 26.6
2017-Sep-21 09:00N 28°54' W 161°42'1313.1 090 / 171020.6 26.6
2017-Sep-21 08:00N 29°06' W 161°48'8 8.0 090 / 151020.9 26.6
2017-Sep-21 07:00N 29°12' W 161°54'8 8.0 120 / 151020.8 26.5
2017-Sep-21 06:00N 29°06' W 161°48'8 8.0 110 / 141020.6 5.4 26.523.626.7
2017-Sep-21 05:00N 29°00' W 161°54'5 5.2 120 / 131019.9 26.8
2017-Sep-21 04:00N 29°00' W 162°00'5 5.2 110 / 111019.7 26.9
2017-Sep-21 03:00N 29°00' W 162°06'0 0.0 110 / 111019.2 26.9
2017-Sep-21 02:00N 29°00' W 162°06'0 0.0
2017-Sep-21 01:00N 29°00' W 162°06'0 0.0
2017-Sep-21 00:00N 29°00' W 162°06'0 0.0 120 / 101019.2 5.4 27.422.426.8
2017-Sep-20 23:00N 29°00' W 162°06'0 0.0 120 / 121019.4 26.8
2017-Sep-20 22:00N 29°00' W 162°06'0 0.0 120 / 141019.3 26.7
2017-Sep-20 21:00N 29°00' W 162°06'0 0.0 110 / 121019.5 5.4 27.022.626.6
2017-Sep-20 20:00N 29°00' W 162°06'0 0.0 120 / 121019.6 26.6
2017-Sep-20 19:00N 29°00' W 162°06'0 0.0 120 / 121019.2 26.6
2017-Sep-20 18:00N 29°00' W 162°06'0 0.0 130 / 121018.9 26.6
2017-Sep-20 17:00N 29°00' W 162°06'0 0.0 130 / 131018.6 26.6
2017-Sep-20 16:00N 29°00' W 162°06'1212.1 130 / 111018.3 26.6
2017-Sep-20 15:00N 28°54' W 161°54'5 5.3 120 / 131018.2 26.6
2017-Sep-20 14:00N 28°54' W 161°48'8 8.0 150 / 191017.6 26.6
2017-Sep-20 13:00N 29°00' W 161°54'6 6.0 120 / 171017.5 26.6
2017-Sep-20 12:00N 29°06' W 161°54'5 5.2 120 / 191017.7 5.4 26.322.526.5
2017-Sep-20 11:00N 29°06' W 162°00'8 8.0 120 / 151017.9 26.5
2017-Sep-20 10:00N 29°00' W 161°54'6 6.0 120 / 171018.3 26.6
2017-Sep-20 09:00N 28°54' W 161°54'8 8.0 120 / 171018.7 5.4 26.523.626.7
2017-Sep-20 08:00N 28°48' W 162°00'1110.5 130 / 161018.5 26.8
2017-Sep-20 07:00N 28°48' W 162°12'1212.1 130 / 181018.4 27.0
2017-Sep-20 06:00N 28°42' W 162°24'1110.5 130 / 191017.7 27.1
2017-Sep-20 05:00N 28°42' W 162°36'0 0.0 100 / 141017.7 27.0
2017-Sep-20 04:00N 28°42' W 162°36'0 0.0 120 / 141017.4 27.1
2017-Sep-20 03:00N 28°42' W 162°36'0 0.0 090 / 131016.9 27.1
2017-Sep-20 02:00N 28°42' W 162°36'0 0.0 090 / 131016.7 27.1
2017-Sep-20 01:00N 28°42' W 162°36'0 0.0 120 / 121016.8 27.1
2017-Sep-20 00:00N 28°42' W 162°36'0 0.0 130 / 141017.1 27.1
2017-Sep-19 23:00N 28°42' W 162°36'0 0.0 130 / 141017.4 27.1
2017-Sep-19 22:00N 28°42' W 162°36'0 0.0 120 / 161017.8 27.0
2017-Sep-19 21:00N 28°42' W 162°36'0 0.0 130 / 151017.9 27.0
2017-Sep-19 20:00N 28°42' W 162°36'0 0.0 130 / 161017.8 26.9
2017-Sep-19 19:00N 28°42' W 162°36'0 0.0 130 / 161017.7 26.9
2017-Sep-19 18:00N 28°42' W 162°36'0 0.0 130 / 181017.4 26.9
2017-Sep-19 17:00N 28°42' W 162°36'8 8.0 130 / 171016.9 26.9
2017-Sep-19 16:00N 28°48' W 162°42'8 8.0 120 / 171016.8 26.8
2017-Sep-19 15:00N 28°54' W 162°48'1313.1 120 / 171016.5 26.7
2017-Sep-19 14:00N 29°06' W 162°54'8 8.0 090 / 181016.8 26.5
2017-Sep-19 13:00N 29°12' W 163°00'8 8.0 120 / 141017.4 26.4
2017-Sep-19 12:00N 29°18' W 163°06'8 8.0 120 / 181015.2 5.4 26.024.026.4
2017-Sep-19 11:00N 29°24' W 163°12'8 8.0 100 / 191018.2 26.3
2017-Sep-19 10:00N 29°30' W 163°18'1313.1 100 / 181018.4 26.4
2017-Sep-19 09:00N 29°42' W 163°24'8 7.9 100 / 171018.8 5.4 26.523.226.2
2017-Sep-19 08:00N 29°48' W 163°30'8 7.9 110 / 181018.9 26.0
2017-Sep-19 07:00N 29°54' W 163°36'1313.1 110 / 171018.9 26.0
2017-Sep-19 06:00N 30°06' W 163°42'8 7.9 100 / 161018.6 25.9
2017-Sep-19 05:00N 30°12' W 163°48'8 7.9 110 / 171018.3 25.8
2017-Sep-19 04:00N 30°18' W 163°54'8 7.9 110 / 171018.1 25.7
2017-Sep-19 03:00N 30°24' W 164°00'0 0.0 130 / 141018.3 25.5
2017-Sep-19 02:00N 30°24' W 164°00'0 0.0 120 / 161018.3 25.5
2017-Sep-19 01:00N 30°24' W 164°00'0 0.0 140 / 141018.7 25.5
2017-Sep-19 00:00N 30°24' W 164°00'0 0.0 140 / 171018.9 5.4 26.523.225.4
2017-Sep-18 23:00N 30°24' W 164°00'0 0.0 130 / 161019.3 25.4
2017-Sep-18 22:00N 30°24' W 164°00'0 0.0 130 / 171019.8 25.4
2017-Sep-18 21:00N 30°24' W 164°00'0 0.0 120 / 171020.3 25.3
2017-Sep-18 20:00N 30°24' W 164°00'0 0.0 120 / 171020.5 25.3
2017-Sep-18 19:00N 30°24' W 164°00'0 0.0 120 / 151020.2 25.3
2017-Sep-18 18:00N 30°24' W 164°00'0 0.0 120 / 171019.8 25.3
2017-Sep-18 17:00N 30°24' W 164°00'0 0.0 110 / 171019.6 25.3
2017-Sep-18 16:00N 30°24' W 164°00'5 5.2 130 / 151019.6 25.3
2017-Sep-18 15:00N 30°24' W 164°06'1313.1 110 / 171019.2 25.3
2017-Sep-18 14:00N 30°36' W 164°00'8 7.9 120 / 151019.3 25.4
2017-Sep-18 13:00N 30°42' W 164°06'1313.1 110 / 161019.6 25.6
2017-Sep-18 12:00N 30°54' W 164°12'8 7.9 100 / 171020.0 25.6
2017-Sep-18 11:00N 31°00' W 164°18'1313.1 100 / 161020.4 25.6
2017-Sep-18 10:00N 31°12' W 164°24'6 6.0 100 / 181020.6 25.6
2017-Sep-18 09:00N 31°18' W 164°24'1313.0 100 / 171021.0 5.4 25.524.125.7
2017-Sep-18 08:00N 31°30' W 164°30'1211.9 100 / 141021.3 25.5
2017-Sep-18 07:00N 31°24' W 164°42'1211.9 140 / 141021.0 25.3
2017-Sep-18 06:00N 31°30' W 164°54'1010.2 120 / 111020.6 25.3
2017-Sep-18 05:00N 31°30' W 165°06'6 6.0 120 / 111020.1 25.4
2017-Sep-18 04:00N 31°36' W 165°06'8 7.9 120 / 131020.4 25.0
2017-Sep-18 03:00N 31°42' W 165°00'0 0.0 140 / 111020.2 25.2
2017-Sep-18 02:00N 31°42' W 165°00'0 0.0 130 / 121020.0 25.2
2017-Sep-18 01:00N 31°42' W 165°00'0 0.0 140 / 111020.2 25.2
2017-Sep-18 00:00N 31°42' W 165°00'0 0.0 140 / 121018.5 5.4 26.424.125.1
2017-Sep-17 23:00N 31°42' W 165°00'0 0.0 140 / 141021.0 25.1
2017-Sep-17 22:00N 31°42' W 165°00'0 0.0 130 / 131021.3 24.9
2017-Sep-17 21:00N 31°42' W 165°00'0 0.0 130 / 121021.5 24.9
2017-Sep-17 20:00N 31°42' W 165°00'0 0.0 120 / 121021.5 24.8
2017-Sep-17 19:00N 31°42' W 165°00'0 0.0 120 / 141021.4 24.8
2017-Sep-17 18:00N 31°42' W 165°00'0 0.0 130 / 141021.3 24.8
2017-Sep-17 17:00N 31°42' W 165°00'0 0.0 120 / 151021.0 24.8
2017-Sep-17 16:00N 31°42' W 165°00'8 7.9 100 / 151020.7 24.8
2017-Sep-17 15:00N 31°48' W 164°54'8 7.9 100 / 161020.8 24.4
2017-Sep-17 14:00N 31°54' W 165°00'1211.8 100 / 161020.5 24.5
2017-Sep-17 13:00N 32°00' W 165°12'8 7.9 100 / 191020.5 24.6
2017-Sep-17 12:00N 32°06' W 165°06'1212.0 090 / 181021.2 5.4 24.523.024.6
2017-Sep-17 11:00N 32°18' W 165°06'1212.0 080 / 191021.6 24.4
2017-Sep-17 10:00N 32°30' W 165°06'8 7.8 080 / 171022.3 23.9
2017-Sep-17 09:00N 32°36' W 165°00'1212.0 080 / 181022.8 23.9
2017-Sep-17 08:00N 32°48' W 165°00'1212.0 080 / 171023.0 23.8
2017-Sep-17 07:00N 33°00' W 165°00'8 7.8 080 / 161023.3 23.8
2017-Sep-17 06:00N 33°06' W 164°54'8 7.8 080 / 161022.5 23.7
2017-Sep-17 05:00N 33°12' W 164°48'6 6.0 100 / 161022.0 23.6
2017-Sep-17 04:00N 33°18' W 164°48'0 0.0 090 / 181021.6 23.6
2017-Sep-17 03:00N 33°18' W 164°48'0 0.0 070 / 191021.3 23.6
2017-Sep-17 02:00N 33°18' W 164°48'0 0.0 090 / 171021.4 23.6
2017-Sep-17 01:00N 33°18' W 164°48'0 0.0 090 / 181021.5 23.6
2017-Sep-17 00:00N 33°18' W 164°48'0 0.0 100 / 211021.6 23.6
2017-Sep-16 23:00N 33°18' W 164°48'6 6.0 090 / 171022.2 23.6
2017-Sep-16 22:00N 33°12' W 164°48'0 0.0 090 / 191022.4 23.5
2017-Sep-16 21:00N 33°12' W 164°48'0 0.0 090 / 191022.5 23.5
2017-Sep-16 20:00N 33°12' W 164°48'0 0.0 080 / 211022.6 23.5
2017-Sep-16 19:00N 33°12' W 164°48'10 1.3 080 / 181022.4 23.5
2017-Sep-16 11:00N 33°12' W 164°36'1313.0 070 / 221021.9 23.8
2017-Sep-16 10:00N 33°00' W 164°30'1211.7 070 / 211021.8 23.8
2017-Sep-16 09:00N 32°54' W 164°18'8 7.8 060 / 221021.7 23.7
2017-Sep-16 08:00N 32°48' W 164°12'8 7.8 070 / 211021.5 23.8
2017-Sep-16 07:00N 32°42' W 164°06'1615.7 080 / 221021.0 23.8
2017-Sep-16 06:00N 32°30' W 163°54'8 7.9 060 / 201018.0 5.4 23.021.523.9
2017-Sep-16 05:00N 32°24' W 163°48'8 7.9 070 / 221019.5 24.0
2017-Sep-16 04:00N 32°18' W 163°42'8 7.9 070 / 231019.2 24.2
2017-Sep-16 03:00N 32°12' W 163°36'0 0.0 050 / 201019.0 24.4
2017-Sep-16 02:00N 32°12' W 163°36'0 0.0 060 / 201018.8 24.4
2017-Sep-16 01:00N 32°12' W 163°36'0 0.0 050 / 231018.8 24.4
2017-Sep-16 00:00N 32°12' W 163°36'0 0.0 040 / 201019.3 24.4
2017-Sep-15 23:00N 32°12' W 163°36'0 0.0 040 / 201019.7 24.4
2017-Sep-15 22:00N 32°12' W 163°36'0 0.0 050 / 191019.9 24.4
2017-Sep-15 21:00N 32°12' W 163°36'0 0.0 050 / 211020.1 24.4
2017-Sep-15 20:00N 32°12' W 163°36'0 0.0 040 / 201020.0 24.3
2017-Sep-15 19:00N 32°12' W 163°36'0 0.0 050 / 201019.7 24.4
2017-Sep-15 18:00N 32°12' W 163°36'0 0.0 040 / 201017.0 5.4 22.019.724.4
2017-Sep-15 17:00N 32°12' W 163°36'0 0.0 040 / 181018.8 24.4
2017-Sep-15 16:00N 32°12' W 163°36'8 7.9 050 / 171018.6 24.4
2017-Sep-15 15:00N 32°18' W 163°30'6 6.0 040 / 161018.2 24.1
2017-Sep-15 14:00N 32°24' W 163°30'1313.0 050 / 151018.3 23.9
2017-Sep-15 13:00N 32°36' W 163°36'6 6.0 040 / 171018.3 24.0
2017-Sep-15 12:00N 32°42' W 163°36'0 0.0 010 / 101016.4 5.4 22.217.924.0
2017-Sep-15 11:00N 32°42' W 163°36'8 7.8 060 / 191018.7 24.0
2017-Sep-15 10:00N 32°36' W 163°30'1918.7 060 / 211018.8 23.9
2017-Sep-15 09:00N 32°18' W 163°24'0 0.0 060 / 171016.5 5.4 22.517.723.9
2017-Sep-15 08:00N 32°18' W 163°24'8 7.9 060 / 231018.6 24.0
2017-Sep-15 07:00N 32°12' W 163°18'8 7.9 050 / 201018.4 24.4
2017-Sep-15 06:00N 32°06' W 163°12'8 7.9 050 / 221017.6 24.5
2017-Sep-15 05:00N 32°00' W 163°06'1211.8 050 / 191016.9 24.6
2017-Sep-15 04:00N 31°54' W 162°54'0 0.0 040 / 201016.6 24.4
2017-Sep-15 03:00N 31°54' W 162°54'0 0.0 030 / 181016.4 24.5
2017-Sep-15 02:00N 31°54' W 162°54'0 0.0 010 / 191016.4 24.5
2017-Sep-15 01:00N 31°54' W 162°54'0 0.0 030 / 171016.5 24.5
2017-Sep-15 00:00N 31°54' W 162°54'0 0.0 030 / 171016.9 24.4
2017-Sep-14 23:00N 31°54' W 162°54'0 0.0 020 / 171017.1 24.4
2017-Sep-14 22:00N 31°54' W 162°54'0 0.0 020 / 181017.3 24.4
2017-Sep-14 21:00N 31°54' W 162°54'0 0.0 020 / 201017.4 5.4 22.918.324.4
2017-Sep-14 20:00N 31°54' W 162°54'0 0.0 030 / 191017.4 24.4
2017-Sep-14 19:00N 31°54' W 162°54'6 6.0 030 / 181017.1 24.4
2017-Sep-14 18:00N 31°48' W 162°54'0 0.0 030 / 171016.8 24.4
2017-Sep-14 17:00N 31°48' W 162°54'0 0.0 040 / 141016.3 24.4
2017-Sep-14 16:00N 31°48' W 162°54'8 7.9 040 / 181015.6 24.5
2017-Sep-14 15:00N 31°42' W 162°48'8 7.9 030 / 191015.3 24.6
2017-Sep-14 14:00N 31°36' W 162°42'8 7.9 020 / 181015.1 24.7
2017-Sep-14 13:00N 31°30' W 162°36'1313.0 030 / 181015.0 24.8
2017-Sep-14 12:00N 31°18' W 162°30'8 7.9 030 / 211014.9 24.9
2017-Sep-14 11:00N 31°12' W 162°24'1212.0 030 / 171015.3 25.0
2017-Sep-14 10:00N 31°00' W 162°24'8 7.9 030 / 241015.4 25.0
2017-Sep-14 09:00N 30°54' W 162°18'8 7.9 030 / 181015.3 5.4 22.519.425.3
2017-Sep-14 08:00N 30°48' W 162°12'1313.1 020 / 191015.4 25.4
2017-Sep-14 07:00N 30°36' W 162°06'6 6.0 030 / 191015.0 25.7
2017-Sep-14 06:00N 30°30' W 162°06'8 7.9 020 / 211014.4 25.7
2017-Sep-14 05:00N 30°24' W 162°00'8 7.9 020 / 171014.2 25.7
2017-Sep-14 04:00N 30°18' W 162°06'0 0.0 090 / 171014.2 25.8
2017-Sep-14 03:00N 30°18' W 162°06'0 0.0 020 / 151013.9 25.8
2017-Sep-14 02:00N 30°18' W 162°06'0 0.0 030 / 151013.7 25.8
2017-Sep-14 01:00N 30°18' W 162°06'0 0.0 060 / 161014.0 25.8
2017-Sep-14 00:00N 30°18' W 162°06'0 0.0 340 / 161014.6 25.7
2017-Sep-13 23:00N 30°18' W 162°06'0 0.0 140 / 151015.1 25.7
2017-Sep-13 22:00N 30°18' W 162°06'0 0.0 060 / 181015.4 25.7
2017-Sep-13 21:00N 30°18' W 162°06'0 0.0 040 / 111015.6 25.7
2017-Sep-13 20:00N 30°18' W 162°06'0 0.0 160 / 121016.0 25.7
2017-Sep-13 19:00N 30°18' W 162°06'0 0.0 060 / 141015.6 25.7
2017-Sep-13 18:00N 30°18' W 162°06'0 0.0 080 / 151015.2 25.7
2017-Sep-13 17:00N 30°18' W 162°06'0 0.0 020 / 151014.9 25.7
2017-Sep-13 16:00N 30°18' W 162°06'5 5.2 040 / 171014.3 25.8
2017-Sep-13 15:00N 30°18' W 162°12'6 6.0 030 / 151014.6 25.9
2017-Sep-13 14:00N 30°24' W 162°12'1212.0 010 / 111014.7 25.8
2017-Sep-13 13:00N 30°30' W 162°00'1010.3 040 / 131015.1 25.7
2017-Sep-13 12:00N 30°30' W 161°48'8 7.9 050 / 141012.7 5.4 23.414.925.6
2017-Sep-13 11:00N 30°24' W 161°54'8 7.9 030 / 211015.2 25.7
2017-Sep-13 10:00N 30°18' W 162°00'6 6.0 040 / 141015.7 25.7
2017-Sep-13 09:00N 30°12' W 162°00'6 6.0 020 / 171015.6 25.7
2017-Sep-13 08:00N 30°06' W 162°00'1212.0 050 / 141015.5 25.8
2017-Sep-13 07:00N 29°54' W 162°00'6 6.0 050 / 191015.1 25.9
2017-Sep-13 06:00N 29°48' W 162°00'6 6.0 040 / 171014.4 26.1
2017-Sep-13 05:00N 29°42' W 162°00'1212.0 050 / 181013.7 26.2
2017-Sep-13 04:00N 29°30' W 162°00'8 8.0 060 / 231013.2 26.3
2017-Sep-13 03:00N 29°24' W 162°06'6 6.0 050 / 211012.9 26.4
2017-Sep-13 02:00N 29°18' W 162°06'8 8.0 040 / 221012.9 26.6
2017-Sep-13 01:00N 29°12' W 162°00'1212.0 060 / 231012.9 26.7
2017-Sep-13 00:00N 29°00' W 162°00'6 6.0 050 / 17
2017-Sep-12 23:00N 28°54' W 162°00'5 5.3 050 / 231013.2 26.9
2017-Sep-12 22:00N 28°54' W 162°06'8 8.0 020 / 21
2017-Sep-12 21:00N 29°00' W 162°12'6 6.0 040 / 181014.2 26.6
2017-Sep-12 20:00N 29°06' W 162°12'8 8.0 050 / 251014.2 26.8
2017-Sep-12 19:00N 29°00' W 162°06'0 0.0 060 / 221013.9 26.8
2017-Sep-12 18:00N 29°00' W 162°06'0 0.0 050 / 251013.7 26.8
2017-Sep-12 17:00N 29°00' W 162°06'0 0.0 020 / 231013.3 26.8
2017-Sep-12 16:00N 29°00' W 162°06'   030 / 241013.2 26.8

Dump ship's entire track history